Latest Weather Observations for Cabramurra

IDN60901

Issued at 8:55 pm EST Wednesday 30 July 2014 (issued every 10 minutes, with the page automatically refreshed every 10 minutes)

About weather observations | Map of Canberra area stations | Latest observations for Canberra area | Other Formats
Station Details ID: 072161 Name: CABRAMURRA SMHEA AWS Lat: -35.94 Lon: 148.38 Height: 1482.4 m
Data from the previous 72 hours. | See also: Recent months at Cabramurra
Date/Time
EST
Tmp

°C
App
Tmp
°C
Dew
Point
°C
Rel
Hum
%
Delta-T

°C
Wind Press
QNH
hPa
Press
MSL
hPa
Rain
since
9 am
mm
Dir
 
Spd
km/h
Gust
km/h
Spd
kts
Gust
kts
30/08:30pm 4.9 -5.7 4.9 100 0.0 W 50 70 27 38 - - 8.2
30/08:00pm 4.6 -5.0 4.6 100 0.0 W 44 65 24 35 - - 8.2
30/07:30pm 4.8 -5.5 4.8 100 0.0 W 48 74 26 40 - - 8.2
30/07:00pm 4.7 -5.2 4.7 100 0.0 W 46 70 25 38 - - 8.2
30/06:30pm 4.6 -5.3 4.6 100 0.0 W 46 72 25 39 - - 8.2
30/06:01pm 4.6 -5.0 4.6 100 0.0 WNW 44 65 24 35 - - 8.2
30/06:00pm 4.6 -5.0 4.6 100 0.0 WNW 44 61 24 33 - - 8.2
30/05:30pm 4.5 -6.2 4.5 100 0.0 W 50 83 27 45 - - 8.0
30/05:00pm 4.4 -6.3 4.4 100 0.0 W 50 69 27 37 - - 7.8
30/04:30pm 4.2 -5.4 4.2 100 0.0 WNW 44 74 24 40 - - 7.8
30/04:00pm 4.2 -4.5 4.2 100 0.0 WNW 39 63 21 34 - - 7.8
30/03:30pm 4.2 -5.8 4.2 100 0.0 WNW 46 74 25 40 - - 7.6
30/03:00pm 4.1 -6.7 4.1 100 0.0 W 50 74 27 40 - - 7.6
30/02:48pm 4.3 -5.1 4.3 100 0.0 W 43 70 23 38 - - 7.2
30/02:30pm 4.5 -2.8 4.5 100 0.0 WNW 32 50 17 27 - - 5.8
30/02:21pm 4.4 -2.9 4.4 100 0.0 WNW 32 50 17 27 - - 5.0
30/02:00pm 4.3 -3.2 4.3 100 0.0 WNW 33 48 18 26 - - 4.2
30/01:30pm 4.1 -5.0 4.1 100 0.0 WNW 41 65 22 35 - - 3.8
30/01:00pm 4.0 -4.3 4.0 100 0.0 W 37 59 20 32 - - 2.6
30/12:30pm 4.0 -3.4 4.0 100 0.0 WNW 32 57 17 31 - - 1.8
30/12:00pm 4.0 -5.5 4.0 100 0.0 WNW 43 65 23 35 - - 1.4
30/11:34am 4.1 -5.0 4.1 100 0.0 W 41 65 22 35 - - 1.0
30/11:30am 4.1 -5.0 4.1 100 0.0 W 41 57 22 31 - - 1.0
30/11:00am 4.0 -4.7 4.0 100 0.0 WNW 39 65 21 35 - - 0.8
30/10:30am 4.1 -4.2 4.1 100 0.0 WNW 37 63 20 34 - - 0.8
30/10:00am 4.1 -3.8 4.1 100 0.0 W 35 63 19 34 - - 0.8
30/09:30am 4.1 -3.8 4.1 100 0.0 WNW 35 56 19 30 - - 0.4
30/09:00am 4.1 -5.4 4.1 100 0.0 WNW 43 65 23 35 - - 2.6
30/08:30am 4.0 -5.7 4.0 100 0.0 W 44 63 24 34 - - 2.4
30/08:00am 4.0 -5.1 4.0 100 0.0 WNW 41 61 22 33 - - 2.2
30/07:30am 4.0 -4.7 4.0 100 0.0 W 39 57 21 31 - - 1.6
30/07:00am 4.0 -5.5 4.0 100 0.0 WNW 43 67 23 36 - - 1.6
30/06:30am 4.0 -7.6 4.0 100 0.0 WNW 54 85 29 46 - - 1.6
30/06:00am 4.0 -5.7 4.0 100 0.0 WNW 44 76 24 41 - - 1.4
30/05:30am 3.8 -6.3 3.8 100 0.0 W 46 85 25 46 - - 1.0
30/05:00am 4.0 -5.7 4.0 100 0.0 W 44 69 24 37 - - 1.0
30/04:30am 3.9 -6.6 3.9 100 0.0 W 48 78 26 42 - - 1.0
30/04:04am 3.9 -5.6 3.9 100 0.0 W 43 87 23 47 - - 0.8
30/04:00am 3.9 -5.2 3.9 100 0.0 W 41 67 22 36 - - 0.8
30/03:30am 3.8 -6.3 3.7 99 0.0 W 46 76 25 41 - - 0.4
30/03:00am 3.8 -5.3 3.8 100 0.0 W 41 65 22 35 - - 0.0
30/02:30am 3.7 -5.9 3.6 99 0.0 W 43 76 23 41 - - 0.0
30/02:00am 3.7 -6.4 3.6 99 0.0 W 46 67 25 36 - - 0.0
30/01:30am 3.5 -6.1 3.4 99 0.0 W 43 65 23 35 - - 0.0
30/01:00am 3.5 -6.7 3.4 99 0.0 W 46 70 25 38 - - 0.0
30/12:30am 3.4 -6.8 3.3 99 0.0 W 46 69 25 37 - - 0.0
30/12:00am 3.3 -7.3 3.2 99 0.0 W 48 70 26 38 - - 0.0
 
Date/Time
EST
Tmp

°C
App
Tmp
°C
Dew
Point
°C
Rel
Hum
%
Delta-T

°C
Wind Press
QNH
hPa
Press
MSL
hPa
Rain
since
9 am
mm
Dir
 
Spd
km/h
Gust
km/h
Spd
kts
Gust
kts
29/11:30pm 3.4 -6.8 3.3 99 0.0 W 46 67 25 36 - - 0.0
29/11:00pm 3.5 -7.0 3.4 99 0.0 W 48 69 26 37 - - 0.0
29/10:30pm 3.6 -6.4 2.1 90 0.7 W 44 76 24 41 - - 0.0
29/10:00pm 3.7 -6.9 0.9 82 1.2 W 46 80 25 43 - - 0.0
29/09:30pm 3.5 -6.1 0.9 83 1.1 W 41 65 22 35 - - 0.0
29/09:00pm 3.6 -5.7 0.7 81 1.2 W 39 63 21 34 - - 0.0
29/08:35pm 3.6 -6.1 0.8 82 1.2 W 41 59 22 32 - - 0.0
29/08:30pm 3.6 -6.4 1.0 83 1.1 W 43 59 23 32 - - 0.0
29/08:00pm 3.6 -6.0 1.2 84 1.0 WNW 41 57 22 31 - - 0.0
29/07:59pm 3.6 -6.0 1.2 84 1.0 WNW 41 57 22 31 - - 0.0
29/07:30pm 3.4 -3.7 1.4 87 0.9 WNW 28 39 15 21 - - 0.0
29/07:00pm 3.2 -3.8 1.7 90 0.6 W 28 39 15 21 - - 0.0
29/06:30pm 3.2 -3.8 1.9 91 0.6 WNW 28 37 15 20 - - 0.0
29/06:16pm 3.1 -3.9 2.1 93 0.4 WNW 28 46 15 25 - - 0.0
29/06:00pm 3.1 -3.9 2.1 93 0.4 WNW 28 43 15 23 - - 0.0
29/05:55pm 3.1 -4.3 2.1 93 0.4 WNW 30 48 16 26 - - 0.0
29/05:30pm 3.1 -3.9 2.2 94 0.4 WNW 28 44 15 24 - - 0.0
29/05:00pm 3.4 -4.0 2.1 91 0.6 WNW 30 44 16 24 - - 0.0
29/04:30pm 3.5 -5.0 1.2 85 1.0 W 35 56 19 30 - - 0.0
29/04:00pm 4.1 -4.4 0.8 79 1.4 W 35 56 19 30 - - 0.0
29/03:57pm 4.1 -4.8 0.8 79 1.4 W 37 56 20 30 - - 0.0
29/03:30pm 4.7 -3.5 0.5 74 1.8 WNW 33 46 18 25 - - 0.0
29/03:00pm 4.5 -5.9 -0.5 70 2.1 W 44 63 24 34 - - 0.0
29/02:30pm 4.8 -5.1 -0.6 68 2.2 W 41 67 22 36 - - 0.0
29/02:00pm 5.0 -4.6 -1.2 64 2.5 W 39 63 21 34 - - 0.0
29/01:30pm 5.1 -5.1 -0.3 68 2.3 W 43 61 23 33 - - 0.0
29/01:25pm 5.1 -4.7 -0.3 68 2.3 WNW 41 59 22 32 - - 0.0
29/01:24pm 5.1 -5.1 -0.5 67 2.3 WNW 43 59 23 32 - - 0.0
29/01:19pm 5.2 -5.0 -0.4 67 2.3 W 43 61 23 33 - - 0.0
29/01:18pm 5.3 -4.1 -0.3 67 2.3 W 39 54 21 29 - - 0.0
29/01:00pm 5.4 -5.9 -1.1 63 2.7 WNW 48 70 26 38 - - 0.0
29/12:30pm 5.2 -4.2 -0.2 68 2.3 NW 39 63 21 34 - - 0.0
29/12:14pm 4.7 -3.5 0.3 73 1.9 WNW 33 65 18 35 - - 0.0
29/12:00pm 4.6 -2.6 0.7 76 1.7 WNW 28 46 15 25 - - 0.0
29/11:38am 4.4 -3.7 0.7 77 1.6 WNW 33 52 18 28 - - 0.0
29/11:30am 4.5 -4.4 0.5 75 1.7 WNW 37 48 20 26 - - 0.0
29/11:00am 4.1 -3.8 0.8 79 1.4 WNW 32 46 17 25 - - 0.0
29/10:30am 3.3 -2.7 1.0 85 1.0 NW 22 33 12 18 - - 0.0
29/10:00am 3.3 -2.2 0.4 81 1.2 NW 19 26 10 14 - - 0.0
29/09:30am 3.6 -1.6 0.3 79 1.4 NW 17 20 9 11 - - 0.0
29/09:00am 3.6 -0.9 0.0 77 1.5 NW 13 19 7 10 - - 0.0
29/08:30am 3.5 -1.0 -0.3 76 1.6 NW 13 20 7 11 - - 0.0
29/08:00am 3.4 -1.9 -0.6 75 1.6 NW 17 20 9 11 - - 0.0
29/07:30am 2.5 -2.9 -1.5 75 1.6 WNW 17 20 9 11 - - 0.0
29/07:00am 2.5 -3.5 -1.8 73 1.7 WNW 20 26 11 14 - - 0.0
29/06:30am 2.7 -4.1 -2.0 71 1.8 WNW 24 30 13 16 - - 0.0
29/06:00am 2.9 -4.3 -2.0 70 1.9 WNW 26 33 14 18 - - 0.0
29/05:30am 3.4 -4.5 -1.9 68 2.1 WNW 30 41 16 22 - - 0.0
29/05:25am 3.3 -4.3 -2.0 68 2.1 WNW 28 46 15 25 - - 0.0
29/05:00am 3.4 -4.9 -1.9 68 2.1 WNW 32 48 17 26 - - 0.0
29/04:30am 3.8 -5.1 -1.7 67 2.2 WNW 35 48 19 26 - - 0.0
29/04:00am 3.7 -4.7 -1.4 69 2.0 WNW 33 46 18 25 - - 0.0
29/03:30am 3.9 -4.6 -1.5 68 2.2 WNW 33 44 18 24 - - 0.0
29/03:00am 3.9 -4.5 -1.3 69 2.1 WNW 33 46 18 25 - - 0.0
29/02:30am 3.7 -4.1 -1.1 71 1.9 WNW 30 39 16 21 - - 0.0
29/02:00am 3.6 -4.6 -1.3 70 2.0 WNW 32 41 17 22 - - 0.0
29/01:30am 3.8 -4.1 -1.2 70 2.0 WNW 30 43 16 23 - - 0.0
29/01:00am 4.0 -4.4 -1.2 69 2.1 WNW 33 48 18 26 - - 0.0
29/12:30am 3.9 -4.9 -1.1 70 2.0 WNW 35 50 19 27 - - 0.0
29/12:00am 3.5 -4.9 -0.7 74 1.7 WNW 33 50 18 27 - - 0.0
 
Date/Time
EST
Tmp

°C
App
Tmp
°C
Dew
Point
°C
Rel
Hum
%
Delta-T

°C
Wind Press
QNH
hPa
Press
MSL
hPa
Rain
since
9 am
mm
Dir
 
Spd
km/h
Gust
km/h
Spd
kts
Gust
kts
28/11:30pm 3.5 -4.6 0.0 78 1.4 WNW 32 44 17 24 - - 0.0
28/11:15pm 3.3 -3.9 0.4 81 1.2 WNW 28 48 15 26 - - 0.0
28/11:00pm 3.1 -3.7 0.5 83 1.1 NW 26 39 14 21 - - 0.0
28/10:30pm 3.1 -2.5 1.2 87 0.8 WNW 20 28 11 15 - - 0.0
28/10:00pm 3.0 -2.6 0.9 86 0.9 NW 20 28 11 15 - - 0.0
28/09:30pm 3.0 -3.0 0.9 86 0.9 WNW 22 33 12 18 - - 0.0
28/09:00pm 2.9 -3.1 1.0 87 0.8 WNW 22 30 12 16 - - 0.0
28/08:30pm 2.6 -3.0 1.1 90 0.6 WNW 20 30 11 16 - - 0.0
28/08:00pm 2.3 -4.0 1.6 95 0.3 WNW 24 30 13 16 - - 0.0
28/07:30pm 2.2 -5.2 1.8 97 0.2 WNW 30 41 16 22 - - 0.0
28/07:00pm 2.2 -3.8 1.3 94 0.4 WNW 22 32 12 17 - - 0.0
28/06:30pm 1.8 -3.1 1.7 99 0.0 WNW 17 22 9 12 - - 0.0
28/06:00pm 2.2 -3.4 1.3 94 0.4 WNW 20 30 11 16 - - 0.0
28/05:30pm 2.3 -3.7 1.0 91 0.5 WNW 22 30 12 16 - - 0.0
28/05:00pm 2.5 -4.3 1.0 90 0.6 WNW 26 35 14 19 - - 0.0
28/04:30pm 2.6 -4.2 1.0 89 0.7 WNW 26 37 14 20 - - 0.0
28/04:00pm 2.8 -4.4 0.9 87 0.8 WNW 28 39 15 21 - - 0.0
28/03:30pm 3.1 -4.1 0.8 85 1.0 W 28 43 15 23 - - 0.0
28/03:00pm 3.3 -3.4 1.2 86 0.9 WNW 26 41 14 22 - - 0.0
28/02:30pm 3.4 -4.0 1.9 90 0.7 W 30 43 16 23 - - 0.0
28/02:00pm 2.9 -4.0 2.6 98 0.1 WNW 28 43 15 23 - - 0.0
28/01:30pm 2.7 -3.8 2.6 99 0.0 WNW 26 35 14 19 - - 0.0
28/01:00pm 2.6 -4.7 2.2 97 0.2 WNW 30 43 16 23 - - 0.0
28/12:30pm 2.3 -3.9 2.2 99 0.0 WNW 24 35 13 19 - - 0.0
28/12:00pm 2.3 -3.9 2.2 99 0.0 WNW 24 32 13 17 - - 0.0
28/11:30am 1.8 -4.1 1.7 99 0.0 WNW 22 37 12 20 - - 0.0
28/11:00am 1.7 -5.4 1.6 99 0.0 W 28 35 15 19 - - 0.0
28/10:30am 1.5 -4.4 1.4 99 0.0 W 22 32 12 17 - - 0.0
28/10:00am 1.6 -4.7 1.5 99 0.0 WNW 24 33 13 18 - - 0.0
28/09:30am 1.6 -3.8 1.5 99 0.0 W 19 26 10 14 - - 0.0
28/09:00am 1.4 -4.0 1.3 99 0.0 W 19 26 10 14 - - 0.0
28/08:30am 1.3 -4.3 1.2 99 0.0 WNW 20 28 11 15 - - 0.0
28/08:00am 1.2 -4.4 1.1 99 0.0 W 20 32 11 17 - - 0.0
28/07:30am 0.7 -5.0 0.6 99 0.0 W 20 30 11 16 - - 0.0
28/07:00am 0.8 -4.9 0.7 99 0.0 W 20 28 11 15 - - 0.0
28/06:30am 0.5 -5.0 0.4 99 0.0 W 19 26 10 14 - - 0.0
28/06:00am 0.9 -5.5 0.8 99 0.0 WSW 24 41 13 22 - - 0.0
28/05:30am 0.9 -5.5 0.8 99 0.0 WSW 24 35 13 19 - - 0.0
28/05:00am 1.2 -4.9 0.6 96 0.2 W 22 32 12 17 - - 0.0
28/04:30am 1.4 -5.1 0.5 94 0.4 WSW 24 33 13 18 - - 0.0
28/04:00am 1.3 -5.2 0.4 94 0.4 WSW 24 35 13 19 - - 0.0
28/03:30am 1.0 -5.8 0.6 97 0.2 WSW 26 35 14 19 - - 0.0
28/03:00am 0.7 -6.1 0.6 99 0.0 WSW 26 35 14 19 - - 0.0
28/02:30am 0.5 -5.2 0.4 99 0.0 WSW 20 30 11 16 - - 0.0
28/02:00am 0.4 -5.3 0.3 99 0.0 WSW 20 28 11 15 - - 0.0
28/01:30am 0.3 -4.9 0.2 99 0.0 WSW 17 24 9 13 - - 0.0
28/01:00am 0.1 -3.6 0.0 99 0.0 W 9 15 5 8 - - 0.0
28/12:30am 0.1 -3.6 0.0 99 0.0 W 9 13 5 7 - - 0.0
28/12:00am 0.3 -3.0 0.2 99 0.0 W 7 11 4 6 - - 0.0
 
Date/Time
EST
Tmp

°C
App
Tmp
°C
Dew
Point
°C
Rel
Hum
%
Delta-T

°C
Wind Press
QNH
hPa
Press
MSL
hPa
Rain
since
9 am
mm
Dir
 
Spd
km/h
Gust
km/h
Spd
kts
Gust
kts
27/11:30pm 0.6 -3.0 0.5 99 0.0 WSW 9 13 5 7 - - 0.0
27/11:00pm 0.7 -3.7 0.6 99 0.0 W 13 22 7 12 - - 0.0
27/10:30pm 0.9 -4.2 0.8 99 0.0 WSW 17 26 9 14 - - 0.0
27/10:00pm 1.1 -4.5 1.0 99 0.0 WSW 20 33 11 18 - - 0.0
27/09:30pm 1.2 -3.8 1.1 99 0.0 W 17 24 9 13 - - 0.0
27/09:00pm 1.3 -3.7 1.2 99 0.0 W 17 24 9 13 - - 0.0

Latest Capital City Observations: Canberra | Sydney | Melbourne | Brisbane | Adelaide | Perth | Hobart | Darwin

Other Formats:

Comma delimited format used in spreadsheet applications
http://www.bom.gov.au/fwo/IDN60903/IDN60903.95916.axf

JavaScript Object Notation format (JSON) in row-major order
http://www.bom.gov.au/fwo/IDN60903/IDN60903.95916.json